Time;durP1;ratioP1;P1;durP2;ratioP2;P2;SDS_P1;SDS_P2;PMS_P1;PMS_P2;Temp;Humidity;BMP_temperature;BMP_pressure;BME280_temperature;BME280_humidity;BME280_pressure;Samples;Min_cycle;Max_cycle;Signal;HPM_P1;HPM_P2
2021/12/14 00:01:30;;;;;;;0.33;0.27;;;;;;;6.63;100.00;95387.59;5055828;28;20461;-53
2021/12/14 00:04:02;;;;;;;1.00;1.00;;;;;;;6.53;100.00;95391.97;5055698;28;20438;-53
2021/12/14 00:06:30;;;;;;;0.50;0.40;;;;;;;6.65;100.00;95396.09;5055743;28;20501;-53
2021/12/14 00:09:02;;;;;;;0.30;0.20;;;;;;;6.62;100.00;95395.75;5055626;28;20466;-53
2021/12/14 00:11:50;;;;;;;0.30;0.20;;;;;;;6.79;100.00;95392.06;5055226;28;20469;-53
2021/12/14 00:15:02;;;;;;;0.40;0.30;;;;;;;7.06;100.00;95392.13;5055382;28;20525;-53
2021/12/14 00:17:20;;;;;;;0.30;0.20;;;;;;;7.16;100.00;95391.47;5055244;28;20499;-53
2021/12/14 00:19:51;;;;;;;0.57;0.57;;;;;;;6.89;100.00;95388.75;5055220;28;20554;-53
2021/12/14 00:22:29;;;;;;;0.70;0.70;;;;;;;6.67;100.00;95396.63;5055636;28;20513;-53
2021/12/14 00:24:59;;;;;;;0.40;0.40;;;;;;;6.30;100.00;95396.34;5055587;28;20457;-53
2021/12/14 00:27:28;;;;;;;0.70;0.70;;;;;;;6.05;100.00;95403.03;5055223;28;20525;-53
2021/12/14 00:30:00;;;;;;;0.93;0.93;;;;;;;6.13;100.00;95407.91;5055561;28;20497;-53
2021/12/14 00:32:36;;;;;;;0.40;0.30;;;;;;;6.69;100.00;95409.53;5054909;28;20434;-53
2021/12/14 00:35:12;;;;;;;0.30;0.20;;;;;;;6.46;100.00;95402.63;5054477;28;20418;-53
2021/12/14 00:37:46;;;;;;;0.50;0.50;;;;;;;6.02;100.00;95411.44;5055099;28;20475;-53
2021/12/14 00:40:20;;;;;;;0.50;0.30;;;;;;;6.49;100.00;95409.25;5055281;28;20509;-52
2021/12/14 00:42:50;;;;;;;0.40;0.40;;;;;;;6.52;100.00;95411.41;5055060;28;20452;-53
2021/12/14 00:45:20;;;;;;;0.30;0.20;;;;;;;6.46;100.00;95412.38;5054998;28;20470;-53
2021/12/14 00:47:50;;;;;;;0.33;0.23;;;;;;;6.30;100.00;95414.78;5054948;28;20465;-53
2021/12/14 00:50:20;;;;;;;0.30;0.20;;;;;;;6.46;100.00;95415.00;5054054;28;20473;-53
2021/12/14 00:52:49;;;;;;;1.53;1.43;;;;;;;6.41;100.00;95421.00;5054790;28;20461;-53
2021/12/14 00:55:23;;;;;;;0.30;0.20;;;;;;;6.30;100.00;95420.03;5055002;28;20521;-53
2021/12/14 00:57:52;;;;;;;0.30;0.20;;;;;;;6.39;100.00;95413.34;5054564;28;20468;-53
2021/12/14 01:00:24;;;;;;;0.30;0.20;;;;;;;6.73;100.00;95423.84;5054703;28;20576;-53
2021/12/14 01:02:53;;;;;;;0.30;0.20;;;;;;;6.77;100.00;95423.09;5054194;28;20457;-53
2021/12/14 01:05:25;;;;;;;1.33;0.43;;;;;;;6.38;100.00;95360.91;5054783;28;20430;-53
2021/12/14 01:07:54;;;;;;;0.33;0.27;;;;;;;6.34;100.00;95423.78;5054450;28;20438;-53
2021/12/14 01:10:31;;;;;;;0.30;0.20;;;;;;;6.67;100.00;95430.88;5054782;28;20430;-53
2021/12/14 01:13:05;;;;;;;0.30;0.20;;;;;;;6.24;100.00;95423.63;5054366;28;20537;-53
2021/12/14 01:15:51;;;;;;;0.30;0.20;;;;;;;6.64;100.00;95430.53;5054443;28;20509;-53
2021/12/14 01:18:32;;;;;;;0.30;0.20;;;;;;;6.53;100.00;95431.44;5054495;28;20488;-53
2021/12/14 01:21:14;;;;;;;0.30;0.20;;;;;;;6.91;100.00;95423.53;5054415;28;20458;-53
2021/12/14 01:23:45;;;;;;;0.30;0.20;;;;;;;6.97;100.00;95417.31;5054220;28;20464;-53
2021/12/14 01:26:29;;;;;;;0.30;0.20;;;;;;;6.98;100.00;95411.78;5053997;28;21088;-53
2021/12/14 01:28:58;;;;;;;0.30;0.30;;;;;;;6.62;100.00;95417.63;5054528;28;20548;-53
2021/12/14 01:31:33;;;;;;;0.30;0.20;;;;;;;6.92;100.00;95422.50;5054425;28;20876;-53
2021/12/14 01:34:05;;;;;;;0.83;0.30;;;;;;;7.23;100.00;95421.06;5054191;28;20432;-53
2021/12/14 01:36:41;;;;;;;0.50;0.50;;;;;;;7.09;100.00;95412.72;5053901;28;20438;-53
2021/12/14 01:39:34;;;;;;;0.30;0.20;;;;;;;6.98;100.00;95426.81;5053956;28;20509;-53
2021/12/14 01:42:08;;;;;;;0.30;0.20;;;;;;;6.48;100.00;95434.00;5053885;28;20466;-53
2021/12/14 01:44:39;;;;;;;0.50;0.50;;;;;;;6.23;100.00;95429.13;5053618;28;20438;-53
2021/12/14 01:47:11;;;;;;;7.70;0.50;;;;;;;6.51;100.00;95426.41;5053608;28;20993;-53
2021/12/14 01:49:40;;;;;;;0.30;0.20;;;;;;;6.52;100.00;95429.84;5053756;28;20794;-53
2021/12/14 01:52:15;;;;;;;0.47;0.37;;;;;;;6.70;100.00;95425.13;5053652;28;20517;-53
2021/12/14 01:54:48;;;;;;;0.30;0.20;;;;;;;6.68;100.00;95421.91;5053670;28;20426;-53
2021/12/14 01:57:22;;;;;;;0.43;0.43;;;;;;;6.91;100.00;95423.53;5053834;28;20507;-53
2021/12/14 01:59:56;;;;;;;0.30;0.20;;;;;;;7.13;100.00;95419.09;5053369;28;20532;-53
2021/12/14 02:02:32;;;;;;;0.30;0.20;;;;;;;7.31;100.00;95420.66;5053692;28;20464;-53
2021/12/14 02:05:05;;;;;;;0.30;0.30;;;;;;;6.96;100.00;95418.34;5053736;28;20787;-53
2021/12/14 02:07:37;;;;;;;0.33;0.33;;;;;;;7.13;100.00;95413.03;5053327;28;20470;-53
2021/12/14 02:10:11;;;;;;;0.30;0.20;;;;;;;7.15;100.00;95417.03;5053652;28;20504;-53
2021/12/14 02:12:44;;;;;;;0.30;0.20;;;;;;;6.54;100.00;95365.38;5053470;28;20876;-53
2021/12/14 02:15:19;;;;;;;0.43;0.40;;;;;;;6.91;100.00;95402.47;5052891;28;20521;-53
2021/12/14 02:17:48;;;;;;;0.30;0.20;;;;;;;7.24;100.00;95418.16;5053253;28;20438;-53
2021/12/14 02:20:23;;;;;;;0.40;0.40;;;;;;;7.08;100.00;95423.50;5052499;28;20506;-53
2021/12/14 02:22:54;;;;;;;0.33;0.27;;;;;;;6.61;100.00;95425.75;5052850;28;20473;-53
2021/12/14 02:25:23;;;;;;;0.30;0.20;;;;;;;5.81;100.00;95325.28;5053378;28;20524;-53
2021/12/14 02:27:56;;;;;;;0.30;0.20;;;;;;;6.71;100.00;95426.69;5053243;28;20873;-53
2021/12/14 02:30:29;;;;;;;0.30;0.20;;;;;;;6.77;100.00;95428.38;5052907;28;20472;-53
2021/12/14 02:32:58;;;;;;;0.30;0.20;;;;;;;6.77;100.00;95420.47;5052802;28;20797;-52
2021/12/14 02:35:29;;;;;;;0.30;0.20;;;;;;;6.97;100.00;95427.84;5052889;28;20496;-53
2021/12/14 02:38:02;;;;;;;0.30;0.20;;;;;;;6.98;100.00;95429.47;5053137;28;20450;-53
2021/12/14 02:40:53;;;;;;;0.40;0.30;;;;;;;7.12;100.00;95421.97;5052719;28;20472;-53
2021/12/14 02:43:25;;;;;;;0.30;0.20;;;;;;;7.08;100.00;95426.94;5053044;28;20434;-53
2021/12/14 02:46:01;;;;;;;0.30;0.20;;;;;;;6.66;100.00;95423.19;5052644;28;20430;-53
2021/12/14 02:48:29;;;;;;;1.60;1.60;;;;;;;6.44;100.00;95433.69;5052844;28;20512;-53
2021/12/14 02:51:05;;;;;;;0.30;0.20;;;;;;;6.40;100.00;95438.63;5052845;28;20521;-53
2021/12/14 02:53:36;;;;;;;0.30;0.20;;;;;;;6.48;100.00;95434.00;5052348;28;20480;-53
2021/12/14 02:56:13;;;;;;;0.40;0.30;;;;;;;6.66;100.00;95428.47;5052783;28;20458;-53
2021/12/14 02:58:43;;;;;;;0.30;0.20;;;;;;;6.75;100.00;95427.03;5052067;28;20516;-53
2021/12/14 03:01:14;;;;;;;0.30;0.20;;;;;;;6.64;100.00;95420.81;5052293;28;20486;-53
2021/12/14 03:03:43;;;;;;;0.40;0.40;;;;;;;6.42;100.00;95425.22;5052500;28;20492;-53
2021/12/14 03:06:17;;;;;;;0.30;0.20;;;;;;;5.83;100.00;95375.81;5051776;28;20522;-53
2021/12/14 03:09:06;;;;;;;0.30;0.20;;;;;;;6.47;100.00;95416.59;5052378;28;20505;-54
2021/12/14 03:11:35;;;;;;;0.30;0.20;;;;;;;5.95;100.00;95411.56;5051865;28;20426;-53
2021/12/14 03:14:04;;;;;;;0.30;0.20;;;;;;;5.92;100.00;95411.25;5051731;28;20458;-52
2021/12/14 03:16:38;;;;;;;0.30;0.20;;;;;;;5.89;100.00;95406.47;5052163;28;20469;-52
2021/12/14 03:19:08;;;;;;;0.30;0.20;;;;;;;6.16;100.00;95424.03;5051678;28;20454;-52
2021/12/14 03:21:39;;;;;;;0.30;0.20;;;;;;;6.21;100.00;95397.78;5051896;28;20485;-52
2021/12/14 03:24:12;;;;;;;0.30;0.20;;;;;;;6.26;100.00;95426.03;5052243;28;20828;-52
2021/12/14 03:26:44;;;;;;;1.30;1.00;;;;;;;6.12;100.00;95406.34;5051798;28;20438;-53
2021/12/14 03:29:15;;;;;;;0.30;0.20;;;;;;;6.50;100.00;95419.56;5051900;28;20465;-52
2021/12/14 03:31:46;;;;;;;0.30;0.20;;;;;;;6.31;100.00;95412.94;5050214;28;20835;-52
2021/12/14 03:34:19;;;;;;;0.30;0.20;;;;;;;6.17;100.00;95417.72;5051736;28;20985;-53
2021/12/14 03:36:51;;;;;;;0.30;0.20;;;;;;;6.03;100.00;95434.84;5051734;28;20438;-52
2021/12/14 03:39:23;;;;;;;0.30;0.20;;;;;;;5.82;100.00;95406.56;5052054;28;20842;-52
2021/12/14 03:41:55;;;;;;;0.30;0.20;;;;;;;4.80;100.00;95249.97;5051645;28;20509;-52
2021/12/14 03:44:26;;;;;;;0.30;0.20;;;;;;;6.05;100.00;95435.41;5052053;28;20451;-53
2021/12/14 03:47:00;;;;;;;0.30;0.20;;;;;;;6.18;100.00;95432.47;5051665;28;21001;-52
2021/12/14 03:49:31;;;;;;;0.37;0.27;;;;;;;6.04;100.00;95433.03;5052056;28;20476;-52
2021/12/14 03:52:01;;;;;;;0.30;0.30;;;;;;;6.16;100.00;95434.56;5051990;28;20528;-52
2021/12/14 03:54:31;;;;;;;0.30;0.20;;;;;;;5.86;100.00;95417.47;5051577;28;20888;-52
2021/12/14 03:56:59;;;;;;;0.30;0.20;;;;;;;6.00;100.00;95437.16;5051968;28;20434;-52
2021/12/14 03:59:30;;;;;;;0.30;0.20;;;;;;;5.90;100.00;95429.88;5050969;28;20531;-54
2021/12/14 04:02:01;;;;;;;0.30;0.20;;;;;;;5.92;100.00;95435.72;5051559;28;20523;-53
2021/12/14 04:04:34;;;;;;;0.30;0.20;;;;;;;5.65;100.00;95447.81;5051779;28;20860;-53
2021/12/14 04:07:04;;;;;;;0.30;0.20;;;;;;;5.70;100.00;95445.28;5051318;28;20513;-53
2021/12/14 04:09:36;;;;;;;0.40;0.37;;;;;;;5.52;100.00;95448.91;5051774;28;20481;-53
2021/12/14 04:12:08;;;;;;;0.30;0.20;;;;;;;4.74;100.00;95309.47;5051458;28;20883;-53
2021/12/14 04:14:39;;;;;;;0.30;0.20;;;;;;;5.67;100.00;95445.75;5051723;28;20473;-53
2021/12/14 04:17:08;;;;;;;0.47;0.30;;;;;;;5.41;100.00;95451.56;5051487;28;20454;-53
2021/12/14 04:19:39;;;;;;;0.30;0.20;;;;;;;5.22;100.00;95452.75;5051271;28;20476;-53
2021/12/14 04:22:11;;;;;;;0.30;0.20;;;;;;;5.37;100.00;95450.44;5051380;28;20544;-53
2021/12/14 04:24:45;;;;;;;0.40;0.40;;;;;;;5.48;100.00;95457.50;5051344;28;20505;-53
2021/12/14 04:27:18;;;;;;;0.30;0.20;;;;;;;5.19;100.00;95450.63;5051292;28;20518;-53
2021/12/14 04:29:47;;;;;;;1.07;0.63;;;;;;;5.19;100.00;95454.00;5051672;28;20890;-53
2021/12/14 04:32:18;;;;;;;0.30;0.20;;;;;;;5.43;100.00;95460.03;5051230;28;20469;-53
2021/12/14 04:34:48;;;;;;;0.30;0.20;;;;;;;5.44;100.00;95459.00;5051665;28;20882;-53
2021/12/14 04:37:18;;;;;;;0.97;0.97;;;;;;;5.49;100.00;95453.84;5051205;28;20466;-53
2021/12/14 04:39:54;;;;;;;0.33;0.27;;;;;;;5.56;100.00;95451.88;5051201;28;20435;-53
2021/12/14 04:53:40;;;;;;;0.30;0.20;;;;;;;5.41;100.00;95457.63;5054709;28;20441;-53
2021/12/14 04:56:12;;;;;;;0.60;0.60;;;;;;;5.40;100.00;95455.22;5055091;28;20437;-53
2021/12/14 04:58:44;;;;;;;0.30;0.20;;;;;;;5.40;100.00;95455.22;5054735;28;20524;-52
2021/12/14 05:01:16;;;;;;;0.40;0.30;;;;;;;5.40;100.00;95448.13;5054883;28;20474;-53
2021/12/14 05:03:49;;;;;;;0.30;0.30;;;;;;;5.45;100.00;95455.31;5054746;28;20910;-53
2021/12/14 05:06:20;;;;;;;0.30;0.20;;;;;;;5.47;100.00;95455.88;5054822;28;20525;-53
2021/12/14 05:11:40;;;;;;;0.30;0.20;;;;;;;5.53;100.00;95460.22;5054298;28;20536;-53
2021/12/14 05:14:11;;;;;;;0.53;0.53;;;;;;;5.49;100.00;95461.72;5054327;28;20894;-53
2021/12/14 05:16:41;;;;;;;0.30;0.20;;;;;;;5.43;100.00;95449.50;5054404;28;20462;-53
2021/12/14 05:19:30;;;;;;;0.50;0.50;;;;;;;5.43;100.00;95465.28;5054296;28;20892;-53
2021/12/14 05:22:03;;;;;;;0.33;0.30;;;;;;;5.54;100.00;95470.47;5053966;28;20497;-53
2021/12/14 05:24:31;;;;;;;0.70;0.60;;;;;;;5.55;100.00;95472.09;5054535;28;20501;-53
2021/12/14 05:27:05;;;;;;;0.60;0.60;;;;;;;5.60;100.00;95466.94;5054174;28;20973;-53
2021/12/14 05:29:35;;;;;;;0.30;0.30;;;;;;;5.35;100.00;95442.78;5054601;28;20449;-53
2021/12/14 05:32:05;;;;;;;0.37;0.30;;;;;;;4.76;100.00;95359.09;5053472;28;20918;-53
2021/12/14 05:34:38;;;;;;;0.30;0.20;;;;;;;5.47;100.00;95480.34;5054115;28;20438;-53
2021/12/14 05:37:10;;;;;;;0.30;0.20;;;;;;;5.47;100.00;95471.66;5054243;28;20505;-53
2021/12/14 05:39:51;;;;;;;0.40;0.40;;;;;;;5.12;100.00;95425.25;5054093;28;20458;-53
2021/12/14 05:45:11;;;;;;;0.40;0.20;;;;;;;5.36;100.00;95464.63;5054285;28;20501;-53
2021/12/14 05:47:48;;;;;;;0.60;0.60;;;;;;;5.37;100.00;95468.81;5053578;28;20473;-53
2021/12/14 05:50:20;;;;;;;0.40;0.40;;;;;;;5.25;100.00;95471.50;5053971;28;20930;-53
2021/12/14 05:52:48;;;;;;;0.30;0.20;;;;;;;5.33;100.00;95478.22;5053783;28;20525;-53
2021/12/14 05:55:23;;;;;;;0.30;0.20;;;;;;;4.94;100.00;95412.28;5052824;28;20867;-53
2021/12/14 05:57:55;;;;;;;0.40;0.30;;;;;;;5.09;100.00;95423.09;5052433;28;20984;-53
2021/12/14 06:00:24;;;;;;;0.63;0.63;;;;;;;5.33;100.00;95483.47;5053287;28;20461;-53
2021/12/14 06:02:53;;;;;;;0.80;0.70;;;;;;;5.68;100.00;95489.44;5053732;28;20820;-53
2021/12/14 06:05:23;;;;;;;0.43;0.37;;;;;;;5.77;100.00;95480.91;5053751;28;20426;-53
2021/12/14 06:07:52;;;;;;;0.40;0.40;;;;;;;5.62;100.00;95479.84;5053592;28;20575;-53
2021/12/14 06:10:24;;;;;;;0.87;0.87;;;;;;;5.72;100.00;95480.03;5053338;28;20537;-53
2021/12/14 06:12:54;;;;;;;0.40;0.30;;;;;;;5.85;100.00;95502.66;5053677;28;20501;-53
2021/12/14 06:15:27;;;;;;;0.40;0.40;;;;;;;5.75;100.00;95493.50;5053642;28;20545;-53
2021/12/14 06:17:55;;;;;;;6.03;1.40;;;;;;;5.55;100.00;95492.31;5053162;28;20884;-53
2021/12/14 06:20:28;;;;;;;0.63;0.63;;;;;;;5.53;100.00;95497.03;5053598;28;20422;-53
2021/12/14 06:22:56;;;;;;;0.30;0.20;;;;;;;5.55;100.00;95501.00;5053033;28;20576;-53
2021/12/14 06:25:28;;;;;;;0.40;0.30;;;;;;;5.56;100.00;95502.63;5053455;28;20857;-53
2021/12/14 06:28:01;;;;;;;0.30;0.30;;;;;;;5.44;100.00;95483.44;5052943;28;20505;-53
2021/12/14 06:30:33;;;;;;;0.30;0.20;;;;;;;5.38;100.00;95494.09;5052934;28;20434;-53
2021/12/14 06:33:06;;;;;;;0.30;0.20;;;;;;;4.78;100.00;95412.97;5052900;28;20478;-53
2021/12/14 06:35:40;;;;;;;0.40;0.30;;;;;;;5.48;100.00;95505.59;5052817;28;20457;-54
2021/12/14 06:38:26;;;;;;;3.43;1.70;;;;;;;5.38;100.00;95497.53;5053183;28;20430;-53
2021/12/14 06:41:13;;;;;;;0.63;0.63;;;;;;;5.32;100.00;95514.19;5052677;28;20430;-54
2021/12/14 06:43:48;;;;;;;2.23;1.07;;;;;;;5.16;100.00;95514.94;5052775;28;20513;-54
2021/12/14 06:46:19;;;;;;;1.63;0.40;;;;;;;5.30;100.00;95518.09;5052959;28;20525;-55
2021/12/14 06:48:51;;;;;;;1.90;1.90;;;;;;;4.87;100.00;95448.38;5052800;28;21016;-54
2021/12/14 06:51:23;;;;;;;1.53;1.53;;;;;;;5.25;100.00;95510.09;5052908;28;20449;-53
2021/12/14 06:53:56;;;;;;;0.30;0.20;;;;;;;5.18;100.00;95514.69;5053100;28;20506;-53
2021/12/14 06:56:27;;;;;;;1.17;1.10;;;;;;;5.21;100.00;95509.78;5052536;28;20458;-53
2021/12/14 06:59:01;;;;;;;0.30;0.20;;;;;;;5.26;100.00;95494.13;5052611;28;20544;-53
2021/12/14 07:01:34;;;;;;;1.70;1.60;;;;;;;5.41;100.00;95507.56;5052587;28;20513;-53
2021/12/14 07:04:05;;;;;;;0.50;0.43;;;;;;;5.44;100.00;95507.09;5052313;28;20873;-53
2021/12/14 07:06:37;;;;;;;0.77;0.77;;;;;;;5.35;100.00;95491.91;5052074;28;20976;-53
2021/12/14 07:09:09;;;;;;;0.93;0.50;;;;;;;4.99;100.00;95457.03;5052373;28;20906;-53
2021/12/14 07:11:40;;;;;;;0.60;0.60;;;;;;;5.65;100.00;95506.47;5052322;28;20458;-54
2021/12/14 07:14:25;;;;;;;0.30;0.20;;;;;;;5.71;100.00;95494.22;5052172;28;20975;-53
2021/12/14 07:16:55;;;;;;;1.07;1.07;;;;;;;5.72;100.00;95501.88;5052087;28;20506;-53
2021/12/14 07:19:41;;;;;;;0.63;0.63;;;;;;;5.93;100.00;95502.28;5052375;28;20509;-53
2021/12/14 07:22:14;;;;;;;0.30;0.20;;;;;;;6.16;100.00;95507.44;5052101;28;20505;-53
2021/12/14 07:24:43;;;;;;;0.80;0.80;;;;;;;6.10;100.00;95496.00;5052210;28;20517;-53
2021/12/14 07:27:21;;;;;;;0.30;0.20;;;;;;;6.05;100.00;95468.81;5052390;28;20419;-53
2021/12/14 07:29:53;;;;;;;0.50;0.50;;;;;;;6.53;100.00;95503.31;5051988;28;20469;-53
2021/12/14 07:32:47;;;;;;;0.40;0.40;;;;;;;6.40;100.00;95493.91;5051926;28;20884;-53
2021/12/14 07:35:20;;;;;;;0.73;0.73;;;;;;;6.80;100.00;95508.75;5033827;28;20503;-53
2021/12/14 07:37:49;;;;;;;0.63;0.63;;;;;;;6.64;100.00;95496.38;5051461;28;20552;-53
2021/12/14 07:40:18;;;;;;;0.40;0.37;;;;;;;7.08;100.00;95505.22;5051948;28;20438;-52
2021/12/14 07:42:47;;;;;;;0.40;0.40;;;;;;;7.08;100.00;95506.00;5051609;28;20552;-52
2021/12/14 07:45:26;;;;;;;0.33;0.23;;;;;;;6.89;100.00;95507.31;5051951;28;20526;-53
2021/12/14 07:47:55;;;;;;;0.30;0.30;;;;;;;6.80;100.00;95496.38;5051599;28;20422;-53
2021/12/14 07:50:38;;;;;;;0.30;0.20;;;;;;;6.65;100.00;95498.00;5051962;28;20422;-53
2021/12/14 07:53:07;;;;;;;0.30;0.20;;;;;;;6.79;100.00;95507.94;5051563;28;20438;-53
2021/12/14 07:55:39;;;;;;;0.30;0.20;;;;;;;6.95;100.00;95486.06;5051406;28;20450;-53
2021/12/14 07:58:08;;;;;;;0.40;0.40;;;;;;;6.91;100.00;95513.94;5051441;28;20492;-53
2021/12/14 08:00:40;;;;;;;0.37;0.30;;;;;;;6.83;100.00;95513.56;5050975;28;20442;-52
2021/12/14 08:03:10;;;;;;;0.30;0.20;;;;;;;6.86;100.00;95523.59;5051342;28;20569;-53
2021/12/14 08:05:43;;;;;;;0.93;0.57;;;;;;;6.80;100.00;95496.38;5051741;28;20427;-52
2021/12/14 08:08:18;;;;;;;0.93;0.93;;;;;;;7.06;100.00;95508.06;5051227;28;20434;-53
2021/12/14 08:11:08;;;;;;;0.40;0.40;;;;;;;7.21;100.00;95510.16;5051355;28;20472;-52
2021/12/14 08:13:45;;;;;;;1.53;1.43;;;;;;;7.67;100.00;95512.28;5051141;28;20434;-54
2021/12/14 08:16:15;;;;;;;0.30;0.20;;;;;;;7.66;100.00;95506.22;5051589;28;20521;-54
2021/12/14 08:18:45;;;;;;;0.30;0.30;;;;;;;7.98;100.00;95511.59;5053917;28;20434;-53
2021/12/14 08:21:20;;;;;;;13.60;0.83;;;;;;;7.95;100.00;95500.75;5054442;28;20905;-52
2021/12/14 08:23:54;;;;;;;0.30;0.20;;;;;;;7.73;100.00;95519.25;5055221;28;20516;-52
2021/12/14 08:26:26;;;;;;;0.30;0.20;;;;;;;7.83;100.00;95521.19;5055519;28;20486;-52
2021/12/14 08:28:58;;;;;;;0.30;0.20;;;;;;;8.27;100.00;95514.84;5055248;28;20465;-52
2021/12/14 08:31:35;;;;;;;0.40;0.30;;;;;;;8.43;100.00;95515.75;5055304;28;20899;-52
2021/12/14 08:34:07;;;;;;;1.90;0.63;;;;;;;8.50;100.00;95514.50;5055074;28;20492;-52
2021/12/14 08:36:40;;;;;;;0.30;0.30;;;;;;;8.05;100.00;95514.84;5055109;28;20517;-52
2021/12/14 08:39:12;;;;;;;0.60;0.60;;;;;;;7.97;100.00;95503.94;5055388;28;20505;-52
2021/12/14 08:41:48;;;;;;;1.33;1.23;;;;;;;8.13;100.00;95516.25;5055363;28;20465;-52
2021/12/14 08:44:21;;;;;;;0.60;0.60;;;;;;;7.86;100.00;95510.16;5055124;28;20556;-53
2021/12/14 08:46:51;;;;;;;0.30;0.20;;;;;;;8.08;100.00;95492.44;5054160;28;20465;-52
2021/12/14 08:49:22;;;;;;;2.83;1.80;;;;;;;8.32;100.00;95491.13;5054900;28;20514;-52
2021/12/14 08:51:50;;;;;;;16.33;5.63;;;;;;;8.17;100.00;95493.59;5054773;28;20426;-52
2021/12/14 08:54:22;;;;;;;2.53;2.43;;;;;;;8.11;100.00;95490.09;5054877;28;20441;-52
2021/12/14 08:56:56;;;;;;;0.40;0.30;;;;;;;7.93;99.67;95493.09;5054147;28;20492;-52
2021/12/14 08:59:26;;;;;;;0.70;0.60;;;;;;;7.99;100.00;95470.19;5054456;28;20508;-53
2021/12/14 09:02:02;;;;;;;0.30;0.20;;;;;;;8.13;100.00;95482.72;5054928;28;20442;-53
2021/12/14 09:04:35;;;;;;;0.40;0.30;;;;;;;7.95;100.00;95458.50;5054495;28;20527;-53
2021/12/14 09:07:07;;;;;;;0.30;0.23;;;;;;;8.07;100.00;95482.94;5054686;28;20465;-53
2021/12/14 09:09:37;;;;;;;0.40;0.30;;;;;;;7.92;100.00;95482.78;5053763;28;20457;-53
2021/12/14 09:12:11;;;;;;;0.30;0.20;;;;;;;7.98;100.00;95474.66;5054626;28;20988;-53
2021/12/14 09:14:41;;;;;;;0.57;0.57;;;;;;;7.61;100.00;95479.00;5054535;28;20505;-53
2021/12/14 09:17:14;;;;;;;0.50;0.30;;;;;;;7.81;100.00;95483.72;5054396;28;21093;-54
2021/12/14 09:19:46;;;;;;;0.30;0.20;;;;;;;7.94;100.00;95475.41;5054385;28;20488;-53
2021/12/14 09:22:26;;;;;;;0.40;0.30;;;;;;;7.93;100.00;95455.34;5054647;28;20457;-51
2021/12/14 09:24:56;;;;;;;0.30;0.20;;;;;;;7.80;99.60;95475.00;5054184;28;20470;-51
2021/12/14 09:27:30;;;;;;;0.30;0.20;;;;;;;8.06;100.00;95471.56;5054399;28;20430;-51
2021/12/14 09:30:00;;;;;;;0.30;0.20;;;;;;;8.20;100.00;95471.94;5053215;28;20472;-52
2021/12/14 09:32:33;;;;;;;0.30;0.20;;;;;;;8.31;100.00;95471.03;5054467;28;20521;-52
2021/12/14 09:35:04;;;;;;;0.30;0.20;;;;;;;8.07;100.00;95461.81;5054081;28;20481;-52
2021/12/14 09:37:33;;;;;;;0.30;0.20;;;;;;;8.35;100.00;95463.44;5054280;28;20517;-52
2021/12/14 09:40:09;;;;;;;0.30;0.20;;;;;;;8.41;96.72;95457.91;5054381;28;20446;-52
2021/12/14 09:42:38;;;;;;;0.30;0.20;;;;;;;8.60;96.72;95459.13;5054348;28;20466;-52
2021/12/14 09:45:12;;;;;;;0.90;0.90;;;;;;;8.30;93.60;95464.16;5054010;28;20498;-52
2021/12/14 09:47:42;;;;;;;0.30;0.20;;;;;;;8.34;100.00;95456.53;5053743;28;20489;-52
2021/12/14 09:50:15;;;;;;;0.40;0.37;;;;;;;8.00;96.31;95406.59;5053822;28;20888;-53
2021/12/14 09:52:47;;;;;;;0.30;0.20;;;;;;;8.57;94.73;95464.94;5053591;28;20526;-53
2021/12/14 09:55:18;;;;;;;0.30;0.20;;;;;;;8.58;98.28;95445.38;5053547;28;20458;-53
2021/12/14 09:57:53;;;;;;;0.30;0.20;;;;;;;8.25;95.81;95438.47;5053131;28;20429;-53
2021/12/14 10:00:24;;;;;;;0.30;0.20;;;;;;;8.21;100.00;95441.88;5053405;28;21055;-52
2021/12/14 10:02:56;;;;;;;0.30;0.20;;;;;;;8.19;98.69;95443.97;5053655;28;20509;-52
2021/12/14 10:05:30;;;;;;;0.30;0.30;;;;;;;8.18;94.25;95458.22;5053279;28;20551;-52
2021/12/14 10:08:02;;;;;;;0.30;0.20;;;;;;;8.25;92.10;95459.59;5053494;28;21028;-52
2021/12/14 10:10:36;;;;;;;0.30;0.20;;;;;;;8.11;92.67;95455.00;5053552;28;20454;-51
2021/12/14 10:13:05;;;;;;;0.50;0.50;;;;;;;8.21;95.84;95470.91;5053351;28;20517;-52
2021/12/14 10:15:39;;;;;;;0.40;0.20;;;;;;;8.37;97.44;95462.13;5053270;28;20474;-52
2021/12/14 10:18:13;;;;;;;0.30;0.20;;;;;;;8.12;94.16;95454.72;5053369;28;20841;-52
2021/12/14 10:20:44;;;;;;;0.30;0.20;;;;;;;7.96;93.74;95471.47;5053525;28;20534;-52
2021/12/14 10:23:14;;;;;;;0.30;0.20;;;;;;;8.21;96.17;95474.38;5052913;28;20434;-52
2021/12/14 10:25:42;;;;;;;0.30;0.20;;;;;;;8.15;91.38;95464.00;5053112;28;20513;-52
2021/12/14 10:28:11;;;;;;;0.30;0.20;;;;;;;7.97;94.61;95467.00;5052946;28;20477;-52
2021/12/14 10:30:44;;;;;;;0.30;0.20;;;;;;;8.09;96.15;95480.84;5053072;28;20476;-53
2021/12/14 10:33:16;;;;;;;0.30;0.20;;;;;;;7.95;95.92;95477.78;5052756;28;20450;-52
2021/12/14 10:35:50;;;;;;;0.30;0.30;;;;;;;7.84;96.44;95483.22;5053019;28;20426;-51
2021/12/14 10:38:28;;;;;;;0.30;0.20;;;;;;;7.84;97.33;95467.38;5052444;28;20429;-52
2021/12/14 10:43:49;;;;;;;0.30;0.20;;;;;;;7.89;96.38;95491.19;5052863;28;20501;-52
2021/12/14 10:46:21;;;;;;;0.30;0.20;;;;;;;7.84;95.87;95491.13;5053111;28;20430;-52
2021/12/14 10:48:52;;;;;;;0.30;0.20;;;;;;;8.02;99.51;95498.72;5052678;28;20427;-52
2021/12/14 10:51:26;;;;;;;0.30;0.20;;;;;;;7.85;100.00;95493.53;5052453;28;20509;-53
2021/12/14 10:54:01;;;;;;;0.30;0.20;;;;;;;7.81;100.00;95502.97;5052442;28;20548;-51
2021/12/14 10:56:41;;;;;;;0.30;0.20;;;;;;;7.58;100.00;95480.28;5052250;28;20426;-52
2021/12/14 10:59:12;;;;;;;0.30;0.20;;;;;;;6.60;100.00;95317.00;5051593;28;20517;-51
2021/12/14 11:01:48;;;;;;;0.30;0.20;;;;;;;7.64;100.00;95479.28;5052356;28;20473;-52
2021/12/14 11:04:25;;;;;;;0.30;0.20;;;;;;;5.68;100.00;95200.19;5052201;28;20465;-52
2021/12/14 11:06:55;;;;;;;0.83;0.60;;;;;;;7.28;100.00;95495.75;5052551;28;20488;-52
2021/12/14 11:09:45;;;;;;;0.30;0.20;;;;;;;7.25;100.00;95490.94;5052258;28;20430;-53
2021/12/14 11:12:23;;;;;;;0.30;0.20;;;;;;;7.30;100.00;95450.66;5051919;28;20866;-52
2021/12/14 11:14:54;;;;;;;0.30;0.20;;;;;;;7.65;100.00;95488.00;5052031;28;20517;-52
2021/12/14 11:20:15;;;;;;;0.37;0.33;;;;;;;7.80;100.00;95497.94;5051910;28;20518;-53
2021/12/14 11:22:49;;;;;;;0.40;0.20;;;;;;;7.10;100.00;95485.47;5052057;28;20926;-53
2021/12/14 11:25:46;;;;;;;0.33;0.23;;;;;;;6.89;100.00;95438.81;5051655;28;20520;-53
2021/12/14 11:28:19;;;;;;;0.30;0.20;;;;;;;7.10;100.00;95477.56;5052121;28;20517;-53
2021/12/14 11:30:50;;;;;;;0.30;0.27;;;;;;;5.92;100.00;95288.41;5051856;28;20414;-53
2021/12/14 11:33:22;;;;;;;0.30;0.20;;;;;;;6.92;100.00;95493.66;5051262;28;20438;-53
2021/12/14 11:35:55;;;;;;;0.40;0.30;;;;;;;6.95;100.00;95490.53;5052162;28;20462;-51
2021/12/14 11:38:29;;;;;;;0.30;0.20;;;;;;;7.11;100.00;95491.56;5051496;28;20427;-52
2021/12/14 11:40:58;;;;;;;0.30;0.20;;;;;;;7.23;100.00;95487.78;5051924;28;20517;-52
2021/12/14 11:43:30;;;;;;;0.77;0.50;;;;;;;6.92;100.00;95493.66;5051611;28;20509;-52
2021/12/14 11:46:04;;;;;;;1.03;1.03;;;;;;;6.92;100.00;95497.09;5051340;28;20478;-52
2021/12/14 11:48:38;;;;;;;1.07;0.43;;;;;;;6.58;100.00;95484.97;5051687;28;20521;-51
2021/12/14 11:51:10;;;;;;;0.40;0.37;;;;;;;6.44;100.00;95481.06;5051157;28;20945;-52
2021/12/14 11:53:39;;;;;;;0.30;0.27;;;;;;;5.86;100.00;95427.97;5050657;28;20472;-52
2021/12/14 11:56:10;;;;;;;0.50;0.50;;;;;;;6.31;100.00;95495.34;5051549;28;20472;-52
2021/12/14 11:58:43;;;;;;;0.50;0.50;;;;;;;6.35;100.00;95488.53;5051790;28;20543;-53
2021/12/14 12:01:19;;;;;;;0.40;0.40;;;;;;;6.51;100.00;95496.69;5051843;28;20548;-53
2021/12/14 12:03:55;;;;;;;0.50;0.40;;;;;;;5.94;100.00;95433.66;5051564;28;20468;-52
2021/12/14 12:09:28;;;;;;;3.03;1.10;;;;;;;5.36;100.00;95373.44;5051723;28;20512;-52
2021/12/14 12:09:45;;;;;;;0.40;0.40;;;;;;;6.30;100.00;95491.09;5051604;28;20433;-52
2021/12/14 12:12:24;;;;;;;0.30;0.30;;;;;;;6.47;100.00;95500.84;5051146;28;20856;-52
2021/12/14 12:14:56;;;;;;;1.27;0.47;;;;;;;5.92;100.00;95422.56;5051654;28;20431;-52
2021/12/14 12:17:29;;;;;;;0.30;0.30;;;;;;;5.87;100.00;95477.69;5051564;28;20926;-53
2021/12/14 12:20:05;;;;;;;0.40;0.40;;;;;;;6.13;100.00;95500.00;5051261;28;20439;-52
2021/12/14 12:22:40;;;;;;;0.40;0.40;;;;;;;5.73;100.00;95432.47;5051464;28;20418;-52
2021/12/14 12:25:11;;;;;;;1.07;1.07;;;;;;;6.19;100.00;95497.25;5050973;28;21067;-52